createdAt,value
2024-01-22T00:00:51.649Z,101633.81
2024-01-22T00:03:19.238Z,101636.28
2024-01-22T00:05:46.561Z,101644.78
2024-01-22T00:08:13.699Z,101629.56
2024-01-22T00:10:40.764Z,101611.84
2024-01-22T00:13:08.008Z,101610.16
2024-01-22T00:15:35.204Z,101601.66
2024-01-22T00:18:02.544Z,101592.31
2024-01-22T00:20:29.623Z,101583.81
2024-01-22T00:22:56.648Z,101608.53
2024-01-22T00:25:23.832Z,101617.06
2024-01-22T00:27:50.858Z,101609.50
2024-01-22T00:30:18.155Z,101587.44
2024-01-22T00:32:45.454Z,101600.38
2024-01-22T00:35:12.805Z,101609.72
2024-01-22T00:37:39.979Z,101606.41
2024-01-22T00:40:07.812Z,101611.59
2024-01-22T00:42:34.718Z,101612.50
2024-01-22T00:45:01.798Z,101615.91
2024-01-22T00:47:31.583Z,101606.63
2024-01-22T00:49:58.534Z,101605.88
2024-01-22T00:52:25.559Z,101606.75
2024-01-22T00:54:52.493Z,101610.19
2024-01-22T00:57:20.755Z,101608.50
2024-01-22T00:59:48.162Z,101610.25
2024-01-22T01:02:15.476Z,101612.81
2024-01-22T01:04:42.405Z,101611.19
2024-01-22T01:07:09.395Z,101609.56
2024-01-22T01:09:36.439Z,101615.47
2024-01-22T01:12:03.684Z,101613.84
2024-01-22T01:14:30.630Z,101612.28
2024-01-22T01:16:57.760Z,101617.41
2024-01-22T01:19:24.777Z,101608.97
2024-01-22T01:21:51.800Z,101620.03
2024-01-22T01:24:18.856Z,101620.09
2024-01-22T01:26:46.316Z,101606.50
2024-01-22T01:29:13.678Z,101623.56
2024-01-22T01:31:40.813Z,101616.75
2024-01-22T01:34:08.621Z,101619.34
2024-01-22T01:36:35.757Z,101617.66
2024-01-22T01:39:03.592Z,101625.31
2024-01-22T01:41:30.714Z,101615.16
2024-01-22T01:43:57.886Z,101618.56
2024-01-22T01:46:24.815Z,101610.09
2024-01-22T01:48:52.781Z,101611.81
2024-01-22T01:51:20.620Z,101613.47
2024-01-22T01:53:48.454Z,101612.69
2024-01-22T01:56:16.008Z,101613.53
2024-01-22T01:58:43.835Z,101605.09
2024-01-22T02:01:11.667Z,101604.28
2024-01-22T02:03:41.701Z,101594.97
2024-01-22T02:06:08.941Z,101600.09
2024-01-22T02:08:36.032Z,101606.06
2024-01-22T02:11:03.150Z,101604.34
2024-01-22T02:13:30.385Z,101597.59
2024-01-22T02:15:58.194Z,101600.22
2024-01-22T02:18:25.927Z,101596.84
2024-01-22T02:20:53.154Z,101600.22
2024-01-22T02:23:20.357Z,101602.78
2024-01-22T02:25:47.359Z,101599.44
2024-01-22T02:28:14.384Z,101612.19
2024-01-22T02:30:41.344Z,101609.66
2024-01-22T02:33:08.499Z,101613.06
2024-01-22T02:35:35.660Z,101617.31
2024-01-22T02:38:03.398Z,101615.63
2024-01-22T02:40:30.335Z,101610.56
2024-01-22T02:42:57.295Z,101614.84
2024-01-22T02:45:24.363Z,101616.50
2024-01-22T02:47:52.181Z,101611.41
2024-01-22T02:50:19.412Z,101608.88
2024-01-22T02:52:46.418Z,101601.22
2024-01-22T02:55:13.377Z,101606.31
2024-01-22T02:57:40.439Z,101608.00
2024-01-22T03:00:07.963Z,101596.13
2024-01-22T03:02:35.669Z,101595.28
2024-01-22T03:05:02.640Z,101598.69
2024-01-22T03:07:30.435Z,101602.13
2024-01-22T03:09:57.445Z,101598.69
2024-01-22T03:12:24.525Z,101590.19
2024-01-22T03:14:51.713Z,101600.44
2024-01-22T03:17:18.769Z,101600.44
2024-01-22T03:19:45.755Z,101610.63
2024-01-22T03:22:12.928Z,101603.00
2024-01-22T03:24:39.862Z,101602.16
2024-01-22T03:27:07.066Z,101585.97
2024-01-22T03:29:34.320Z,101597.91
2024-01-22T03:32:01.442Z,101597.09
2024-01-22T03:34:28.681Z,101598.78
2024-01-22T03:36:55.709Z,101592.88
2024-01-22T03:39:22.815Z,101596.25
2024-01-22T03:41:51.151Z,101590.31
2024-01-22T03:44:18.146Z,101603.88
2024-01-22T03:46:45.115Z,101603.06
2024-01-22T03:49:12.269Z,101606.44
2024-01-22T03:51:39.321Z,101613.25
2024-01-22T03:54:06.424Z,101606.50
2024-01-22T03:56:33.492Z,101609.06
2024-01-22T03:59:00.721Z,101601.41
2024-01-22T04:01:27.722Z,101598.84
2024-01-22T04:03:54.767Z,101614.16
2024-01-22T04:06:21.960Z,101605.69
2024-01-22T04:08:49.073Z,101613.31
2024-01-22T04:11:16.169Z,101611.56
2024-01-22T04:13:43.811Z,101610.72
2024-01-22T04:16:15.082Z,101614.13
2024-01-22T04:18:44.098Z,101613.28
2024-01-22T04:21:12.293Z,101612.41
2024-01-22T04:23:39.569Z,101602.25
2024-01-22T04:26:07.307Z,101604.78
2024-01-22T04:28:34.382Z,101604.78
2024-01-22T04:31:02.081Z,101604.78
2024-01-22T04:33:29.374Z,101604.81
2024-01-22T04:35:56.568Z,101601.44
2024-01-22T04:38:23.672Z,101612.47
2024-01-22T04:40:50.701Z,101602.28
2024-01-22T04:43:17.782Z,101604.84
2024-01-22T04:45:44.823Z,101604.00
2024-01-22T04:48:12.234Z,101604.84
2024-01-22T04:50:39.374Z,101598.94
2024-01-22T04:53:06.384Z,101600.63
2024-01-22T04:55:35.546Z,101591.25
2024-01-22T04:58:04.727Z,101591.28
2024-01-22T05:00:32.903Z,101601.44
2024-01-22T05:03:05.686Z,101592.94
2024-01-22T05:05:33.482Z,101598.03
2024-01-22T05:08:00.753Z,101591.25
2024-01-22T05:10:27.818Z,101582.78
2024-01-22T05:12:55.010Z,101574.31
2024-01-22T05:15:22.173Z,101578.59
2024-01-22T05:17:49.487Z,101574.34
2024-01-22T05:20:16.610Z,101576.06
2024-01-22T05:22:45.364Z,101569.28
2024-01-22T05:25:13.554Z,101569.31
2024-01-22T05:27:45.789Z,101567.59
2024-01-22T05:30:13.794Z,101552.28
2024-01-22T05:32:41.391Z,101571.88
2024-01-22T05:35:08.868Z,101572.69
2024-01-22T05:37:36.007Z,101572.69
2024-01-22T05:40:05.211Z,101569.31
2024-01-22T05:42:32.244Z,101576.94
2024-01-22T05:44:59.320Z,101575.25
2024-01-22T05:47:26.409Z,101579.50
2024-01-22T05:49:53.402Z,101563.38
2024-01-22T05:52:21.347Z,101577.81
2024-01-22T05:54:48.428Z,101576.09
2024-01-22T05:57:15.621Z,101577.81
2024-01-22T05:59:42.762Z,101568.47
2024-01-22T06:02:09.763Z,101586.34
2024-01-22T06:04:36.936Z,101586.34
2024-01-22T06:07:05.896Z,101589.75
2024-01-22T06:09:33.634Z,101588.94
2024-01-22T06:12:00.797Z,101585.56
2024-01-22T06:14:28.014Z,101586.41
2024-01-22T06:16:54.997Z,101582.13
2024-01-22T06:19:22.228Z,101581.31
2024-01-22T06:21:49.172Z,101583.88
2024-01-22T06:24:16.810Z,101586.44
2024-01-22T06:26:43.988Z,101600.03
2024-01-22T06:29:14.929Z,101600.06
2024-01-22T06:31:45.027Z,101601.75
2024-01-22T06:34:13.123Z,101599.22
2024-01-22T06:36:40.292Z,101588.19
2024-01-22T06:39:09.561Z,101595.84
2024-01-22T06:41:37.131Z,101580.53
2024-01-22T06:44:04.188Z,101603.50
2024-01-22T06:46:31.213Z,101587.31
2024-01-22T06:48:58.236Z,101618.75
2024-01-22T06:51:31.008Z,101625.56
2024-01-22T06:54:02.420Z,101623.88
2024-01-22T06:56:29.499Z,101618.75
2024-01-22T06:58:57.444Z,101621.31
2024-01-22T07:01:27.862Z,101622.16
2024-01-22T07:03:55.758Z,101616.19
2024-01-22T07:06:25.661Z,101622.13
2024-01-22T07:08:53.183Z,101628.06
2024-01-22T07:11:20.304Z,101625.50
2024-01-22T07:13:47.243Z,101621.25
2024-01-22T07:16:14.304Z,101624.66
2024-01-22T07:18:41.492Z,101618.69
2024-01-22T07:21:08.536Z,101613.56
2024-01-22T07:23:35.504Z,101626.31
2024-01-22T07:26:02.444Z,101617.81
2024-01-22T07:28:29.486Z,101615.25
2024-01-22T07:30:56.469Z,101612.69
2024-01-22T07:33:23.537Z,101598.25
2024-01-22T07:35:50.729Z,101610.97
2024-01-22T07:38:18.072Z,101599.00
2024-01-22T07:40:45.114Z,101588.75
2024-01-22T07:43:12.073Z,101598.09
2024-01-22T07:45:39.195Z,101598.09
2024-01-22T07:48:06.691Z,101592.97
2024-01-22T07:50:33.817Z,101585.22
2024-01-22T07:53:00.773Z,101586.91
2024-01-22T07:55:27.884Z,101585.19
2024-01-22T07:57:54.928Z,101577.47
2024-01-22T08:00:22.134Z,101575.72
2024-01-22T08:02:49.377Z,101571.44
2024-01-22T08:05:16.554Z,101569.66
2024-01-22T08:07:45.188Z,101560.28
2024-01-22T08:10:13.999Z,101561.19
2024-01-22T08:12:41.630Z,101575.59
2024-01-22T08:15:10.917Z,101589.16
2024-01-22T08:17:39.433Z,101589.13
2024-01-22T08:20:08.837Z,101576.31
2024-01-22T08:22:35.937Z,101566.78
2024-01-22T08:25:04.847Z,101561.59
2024-01-22T08:27:32.049Z,101566.66
2024-01-22T08:29:59.058Z,101553.75
2024-01-22T08:32:26.338Z,101545.97
2024-01-22T08:34:54.703Z,101538.13
2024-01-22T08:37:21.801Z,101535.38
2024-01-22T08:39:49.908Z,101533.50
2024-01-22T08:42:17.018Z,101528.31
2024-01-22T08:44:44.161Z,101532.50
2024-01-22T08:47:11.131Z,101542.72
2024-01-22T08:49:38.564Z,101535.06
2024-01-22T08:52:05.802Z,101534.03
2024-01-22T08:54:32.827Z,101527.00
2024-01-22T08:56:59.909Z,101515.78
2024-01-22T08:59:27.289Z,101515.59
2024-01-22T09:01:55.215Z,101508.72
2024-01-22T09:04:22.397Z,101502.81
2024-01-22T09:06:49.631Z,101524.19
2024-01-22T09:09:16.848Z,101506.34
2024-01-22T09:11:43.953Z,101510.38
2024-01-22T09:14:11.104Z,101511.91
2024-01-22T09:16:38.155Z,101508.19
2024-01-22T09:19:07.744Z,101496.03
2024-01-22T09:21:35.213Z,101503.69
2024-01-22T09:24:02.899Z,101501.91
2024-01-22T09:26:30.003Z,101507.72
2024-01-22T09:28:57.101Z,101509.25
2024-01-22T09:31:24.343Z,101496.31
2024-01-22T09:33:54.716Z,101498.00
2024-01-22T09:36:22.780Z,101485.03
2024-01-22T09:38:50.424Z,101483.28
2024-01-22T09:41:18.314Z,101481.59
2024-01-22T09:43:47.351Z,101471.50
2024-01-22T09:46:15.433Z,101476.53
2024-01-22T09:48:42.625Z,101469.63
2024-01-22T09:51:09.758Z,101469.56
2024-01-22T09:53:37.399Z,101464.38
2024-01-22T09:56:05.931Z,101469.63
2024-01-22T09:58:38.927Z,101451.97
2024-01-22T10:01:12.178Z,101459.19
2024-01-22T10:03:40.482Z,101448.44
2024-01-22T10:06:08.187Z,101453.25
2024-01-22T10:08:35.308Z,101457.97
2024-01-22T10:11:04.018Z,101435.34
2024-01-22T10:13:31.011Z,101452.59
2024-01-22T10:16:11.384Z,101471.03
2024-01-22T10:18:39.425Z,101471.03
2024-01-22T10:21:06.578Z,101465.22
2024-01-22T10:23:34.942Z,101474.16
2024-01-22T10:26:08.389Z,101482.22
2024-01-22T10:28:35.694Z,101464.88
2024-01-22T10:31:04.573Z,101467.75
2024-01-22T10:33:32.113Z,101456.50
2024-01-22T10:36:15.899Z,101457.44
2024-01-22T10:38:43.182Z,101460.88
2024-01-22T10:41:23.464Z,101446.31
2024-01-22T10:43:51.547Z,101457.13
2024-01-22T10:46:20.523Z,101455.16
2024-01-22T10:48:48.743Z,101454.41
2024-01-22T10:51:16.832Z,101458.47
2024-01-22T10:53:45.617Z,101449.56
2024-01-22T10:56:20.486Z,101442.28
2024-01-22T10:58:51.676Z,101444.22
2024-01-22T11:01:24.023Z,101414.72
2024-01-22T11:03:53.762Z,101434.28
2024-01-22T11:06:24.630Z,101430.97
2024-01-22T11:08:53.256Z,101418.31
2024-01-22T11:11:30.090Z,101421.84
2024-01-22T11:14:00.698Z,101411.66
2024-01-22T11:16:29.061Z,101421.16
2024-01-22T11:18:57.360Z,101410.13
2024-01-22T11:21:25.831Z,101411.06
2024-01-22T11:24:12.206Z,101414.50
2024-01-22T11:26:45.143Z,101414.53
2024-01-22T11:29:20.002Z,101411.22
2024-01-22T11:31:49.874Z,101403.56
2024-01-22T11:34:43.802Z,101397.63
2024-01-22T11:37:13.907Z,101394.25
2024-01-22T11:39:43.132Z,101393.41
2024-01-22T11:42:17.603Z,101400.25
2024-01-22T11:44:47.529Z,101388.38
2024-01-22T11:47:18.166Z,101378.16
2024-01-22T11:49:45.864Z,101390.16
2024-01-22T11:52:19.129Z,101391.91
2024-01-22T11:55:12.726Z,101375.81
2024-01-22T11:57:41.207Z,101371.56
2024-01-22T12:00:11.733Z,101365.66
2024-01-22T12:02:43.479Z,101368.25
2024-01-22T12:05:18.918Z,101342.69
2024-01-22T12:07:49.113Z,101343.50
2024-01-22T12:10:24.740Z,101346.84
2024-01-22T12:12:56.801Z,101345.03
2024-01-22T12:15:26.120Z,101352.59
2024-01-22T12:17:54.238Z,101355.88
2024-01-22T12:20:22.798Z,101350.63
2024-01-22T12:23:12.497Z,101355.66
2024-01-22T12:25:40.877Z,101349.63
2024-01-22T12:28:13.059Z,101371.69
2024-01-22T12:30:43.990Z,101365.63
2024-01-22T12:33:22.755Z,101360.47
2024-01-22T12:35:52.192Z,101350.13
2024-01-22T12:38:22.114Z,101347.44
2024-01-22T12:40:58.959Z,101354.28
2024-01-22T12:43:26.473Z,101359.34
2024-01-22T12:46:08.220Z,101344.84
2024-01-22T12:48:36.287Z,101338.06
2024-01-22T12:51:08.026Z,101328.75
2024-01-22T12:53:35.632Z,101324.47
2024-01-22T12:56:03.522Z,101315.19
2024-01-22T12:58:30.669Z,101322.84
2024-01-22T13:00:59.797Z,101315.22
2024-01-22T13:03:27.281Z,101299.88
2024-01-22T13:05:54.605Z,101294.75
2024-01-22T13:08:21.929Z,101294.84
2024-01-22T13:10:48.999Z,101294.03
2024-01-22T13:13:16.687Z,101283.81
2024-01-22T13:15:52.812Z,101281.28
2024-01-22T13:18:30.964Z,101280.53
2024-01-22T13:20:57.997Z,101286.56
2024-01-22T13:23:25.072Z,101283.22
2024-01-22T13:25:53.168Z,101284.94
2024-01-22T13:28:20.207Z,101271.31
2024-01-22T13:30:47.346Z,101278.13
2024-01-22T13:33:15.307Z,101283.25
2024-01-22T13:35:42.735Z,101286.66
2024-01-22T13:38:14.402Z,101283.34
2024-01-22T13:40:41.341Z,101282.56
2024-01-22T13:43:08.320Z,101271.56
2024-01-22T13:45:35.874Z,101268.19
2024-01-22T13:48:03.268Z,101280.19
2024-01-22T13:50:31.074Z,101269.19
2024-01-22T13:52:59.459Z,101258.22
2024-01-22T13:55:27.746Z,101250.69
2024-01-22T13:57:56.719Z,101249.91
2024-01-22T14:00:23.759Z,101246.63
2024-01-22T14:02:50.761Z,101225.44
2024-01-22T14:05:17.884Z,101213.66
2024-01-22T14:07:45.113Z,101212.88
2024-01-22T14:10:15.789Z,101190.03
2024-01-22T14:12:43.924Z,101207.88
2024-01-22T14:15:11.404Z,101198.53
2024-01-22T14:17:38.568Z,101194.34
2024-01-22T14:20:08.762Z,101196.97
2024-01-22T14:22:38.062Z,101180.78
2024-01-22T14:25:08.920Z,101185.13
2024-01-22T14:27:36.081Z,101188.59
2024-01-22T14:30:04.049Z,101189.44
2024-01-22T14:32:32.529Z,101180.13
2024-01-22T14:35:01.212Z,101191.25
2024-01-22T14:37:28.628Z,101184.44
2024-01-22T14:39:55.823Z,101178.53
2024-01-22T14:42:22.924Z,101174.31
2024-01-22T14:44:50.111Z,101163.28
2024-01-22T14:47:18.168Z,101160.81
2024-01-22T14:49:45.371Z,101148.88
2024-01-22T14:52:12.567Z,101140.41
2024-01-22T14:54:39.734Z,101146.41
2024-01-22T14:57:08.579Z,101154.06
2024-01-22T14:59:36.985Z,101143.91
2024-01-22T15:02:04.210Z,101133.75
2024-01-22T15:04:31.305Z,101130.38
2024-01-22T15:06:58.869Z,101126.97
2024-01-22T15:09:25.859Z,101118.47
2024-01-22T15:11:53.110Z,101117.63
2024-01-22T15:14:23.358Z,101116.81
2024-01-22T15:16:50.545Z,101119.38
2024-01-22T15:19:18.202Z,101110.91
2024-01-22T15:21:46.895Z,101123.66
2024-01-22T15:24:15.095Z,101099.81
2024-01-22T15:26:42.283Z,101094.72
2024-01-22T15:29:09.745Z,101097.28
2024-01-22T15:31:37.870Z,101085.38
2024-01-22T15:34:06.614Z,101085.38
2024-01-22T15:36:34.503Z,101076.06
2024-01-22T15:39:02.615Z,101076.06
2024-01-22T15:41:29.842Z,101059.16
2024-01-22T15:43:57.076Z,101067.59
2024-01-22T15:46:24.522Z,101071.84
2024-01-22T15:48:52.407Z,101051.44
2024-01-22T15:51:19.518Z,101046.34
2024-01-22T15:53:46.817Z,101043.81
2024-01-22T15:56:14.271Z,101033.59
2024-01-22T15:58:41.402Z,101035.31
2024-01-22T16:01:08.480Z,101037.03
2024-01-22T16:03:35.647Z,101032.78
2024-01-22T16:06:05.329Z,101023.47
2024-01-22T16:08:32.567Z,101021.75
2024-01-22T16:11:00.320Z,101006.50
2024-01-22T16:13:27.445Z,101024.31
2024-01-22T16:15:54.579Z,101020.94
2024-01-22T16:18:22.083Z,100997.13
2024-01-22T16:20:49.562Z,101017.50
2024-01-22T16:23:16.867Z,101002.22
2024-01-22T16:25:44.021Z,101003.94
2024-01-22T16:28:11.108Z,100988.63
2024-01-22T16:30:42.330Z,100982.66
2024-01-22T16:33:11.755Z,100980.97
2024-01-22T16:35:39.315Z,100992.88
2024-01-22T16:38:06.493Z,100986.06
2024-01-22T16:40:33.676Z,100988.59
2024-01-22T16:43:01.291Z,100981.78
2024-01-22T16:45:28.455Z,100981.78
2024-01-22T16:47:55.694Z,100973.31
2024-01-22T16:50:22.890Z,100969.06
2024-01-22T16:52:55.328Z,100952.97
2024-01-22T16:55:23.278Z,100957.19
2024-01-22T16:57:50.435Z,100951.28
2024-01-22T17:00:18.021Z,100938.56
2024-01-22T17:02:45.211Z,100940.22
2024-01-22T17:05:12.427Z,100931.78
2024-01-22T17:07:40.655Z,100939.41
2024-01-22T17:10:09.248Z,100949.63
2024-01-22T17:12:36.607Z,100955.53
2024-01-22T17:15:05.359Z,100946.09
2024-01-22T17:17:34.566Z,100956.19
2024-01-22T17:20:01.894Z,100944.28
2024-01-22T17:22:30.784Z,100934.75
2024-01-22T17:24:58.212Z,100938.22
2024-01-22T17:27:25.929Z,100941.56
2024-01-22T17:29:53.145Z,100921.13
2024-01-22T17:32:21.127Z,100927.97
2024-01-22T17:34:49.009Z,100916.06
2024-01-22T17:37:16.312Z,100926.16
2024-01-22T17:39:44.266Z,100921.00
2024-01-22T17:42:11.830Z,100927.78
2024-01-22T17:44:41.754Z,100913.22
2024-01-22T17:47:08.997Z,100905.56
2024-01-22T17:49:37.051Z,100907.25
2024-01-22T17:52:04.416Z,100906.34
2024-01-22T17:54:31.771Z,100902.03
2024-01-22T17:56:58.935Z,100891.81
2024-01-22T17:59:25.966Z,100897.69
2024-01-22T18:01:53.671Z,100898.53
2024-01-22T18:04:20.806Z,100907.94
2024-01-22T18:06:47.951Z,100896.06
2024-01-22T18:09:15.093Z,100878.25
2024-01-22T18:11:45.664Z,100890.13
2024-01-22T18:14:13.849Z,100865.47
2024-01-22T18:16:41.182Z,100870.59
2024-01-22T18:19:08.496Z,100856.25
2024-01-22T18:21:36.821Z,100863.81
2024-01-22T18:24:06.699Z,100845.03
2024-01-22T18:26:34.168Z,100845.88
2024-01-22T18:29:01.713Z,100839.00
2024-01-22T18:31:31.701Z,100845.81
2024-01-22T18:33:59.053Z,100844.03
2024-01-22T18:36:26.250Z,100852.44
2024-01-22T18:38:53.550Z,100847.34
2024-01-22T18:41:25.418Z,100843.97
2024-01-22T18:43:53.642Z,100831.19
2024-01-22T18:46:23.844Z,100829.53
2024-01-22T18:48:51.740Z,100821.00
2024-01-22T18:51:18.974Z,100824.28
2024-01-22T18:53:46.010Z,100819.91
2024-01-22T18:56:14.915Z,100819.88
2024-01-22T18:58:42.130Z,100803.69
2024-01-22T19:01:09.372Z,100802.00
2024-01-22T19:03:37.908Z,100800.41
2024-01-22T19:06:07.156Z,100785.03
2024-01-22T19:08:34.422Z,100791.00
2024-01-22T19:11:01.925Z,100788.50
2024-01-22T19:13:29.063Z,100783.34
2024-01-22T19:15:57.156Z,100773.13
2024-01-22T19:18:24.331Z,100784.16
2024-01-22T19:20:51.439Z,100781.56
2024-01-22T19:23:18.467Z,100749.53
2024-01-22T19:25:45.657Z,100760.22
2024-01-22T19:28:13.440Z,100768.56
2024-01-22T19:30:40.386Z,100749.69
2024-01-22T19:33:07.650Z,100748.00
2024-01-22T19:35:34.875Z,100726.69
2024-01-22T19:38:01.820Z,100724.22
2024-01-22T19:40:30.311Z,100726.78
2024-01-22T19:42:58.540Z,100720.88
2024-01-22T19:45:25.617Z,100741.34
2024-01-22T19:47:52.818Z,100723.50
2024-01-22T19:50:19.996Z,100725.16
2024-01-22T19:52:50.009Z,100719.22
2024-01-22T19:55:17.358Z,100702.44
2024-01-22T19:57:45.728Z,100726.91
2024-01-22T20:00:14.007Z,100720.94
2024-01-22T20:02:41.409Z,100718.34
2024-01-22T20:05:08.779Z,100711.53
2024-01-22T20:07:35.775Z,100717.41
2024-01-22T20:10:03.138Z,100713.06
2024-01-22T20:12:31.284Z,100704.53
2024-01-22T20:14:58.457Z,100663.94
2024-01-22T20:17:25.537Z,100676.47
2024-01-22T20:19:52.560Z,100680.78
2024-01-22T20:22:19.556Z,100668.16
2024-01-22T20:24:47.794Z,100675.06
2024-01-22T20:27:14.904Z,100659.03
2024-01-22T20:29:41.878Z,100672.69
2024-01-22T20:32:09.496Z,100659.06
2024-01-22T20:34:36.699Z,100660.03
2024-01-22T20:37:03.837Z,100663.41
2024-01-22T20:39:32.504Z,100657.41
2024-01-22T20:41:59.950Z,100634.66
2024-01-22T20:44:27.133Z,100614.16
2024-01-22T20:46:54.474Z,100602.25
2024-01-22T20:49:21.708Z,100630.13
2024-01-22T20:51:48.747Z,100629.38
2024-01-22T20:54:16.535Z,100616.63
2024-01-22T20:56:44.071Z,100615.78
2024-01-22T20:59:11.268Z,100615.72
2024-01-22T21:01:45.590Z,100619.97
2024-01-22T21:04:13.207Z,100613.09
2024-01-22T21:06:41.553Z,100615.66
2024-01-22T21:09:08.753Z,100609.69
2024-01-22T21:11:36.231Z,100620.63
2024-01-22T21:14:03.691Z,100605.25
2024-01-22T21:16:30.713Z,100623.03
2024-01-22T21:18:57.890Z,100593.34
2024-01-22T21:21:25.121Z,100612.56
2024-01-22T21:23:54.516Z,100615.06
2024-01-22T21:26:23.353Z,100633.03
2024-01-22T21:28:50.824Z,100625.50
2024-01-22T21:31:19.304Z,100628.91
2024-01-22T21:33:50.153Z,100613.53
2024-01-22T21:36:18.029Z,100608.38
2024-01-22T21:38:44.981Z,100616.00
2024-01-22T21:41:14.501Z,100617.66
2024-01-22T21:43:41.872Z,100614.19
2024-01-22T21:46:09.061Z,100604.75
2024-01-22T21:48:36.202Z,100606.47
2024-01-22T21:51:03.525Z,100604.72
2024-01-22T21:53:30.433Z,100612.28
2024-01-22T21:55:57.633Z,100602.81
2024-01-22T21:58:24.680Z,100606.28
2024-01-22T22:00:51.868Z,100594.41
2024-01-22T22:03:19.031Z,100585.63
2024-01-22T22:05:47.402Z,100590.69
2024-01-22T22:08:14.700Z,100588.09
2024-01-22T22:10:43.248Z,100573.00
2024-01-22T22:13:10.836Z,100577.03
2024-01-22T22:15:38.746Z,100571.81
2024-01-22T22:18:06.227Z,100578.41
2024-01-22T22:20:33.986Z,100581.69
2024-01-22T22:23:01.496Z,100574.75
2024-01-22T22:25:28.506Z,100573.78
2024-01-22T22:27:55.532Z,100568.53
2024-01-22T22:30:22.600Z,100556.53
2024-01-22T22:32:50.408Z,100564.09
2024-01-22T22:35:17.874Z,100556.38
2024-01-22T22:37:44.890Z,100557.38
2024-01-22T22:40:12.623Z,100552.34
2024-01-22T22:42:40.169Z,100545.53
2024-01-22T22:45:09.458Z,100544.63
2024-01-22T22:47:37.882Z,100551.25
2024-01-22T22:50:05.623Z,100550.44
2024-01-22T22:52:32.677Z,100541.09
2024-01-22T22:54:59.684Z,100528.25
2024-01-22T22:57:29.321Z,100524.75
2024-01-22T22:59:56.911Z,100523.72
2024-01-22T23:02:27.272Z,100512.38
2024-01-22T23:04:56.058Z,100510.53
2024-01-22T23:07:24.404Z,100500.31
2024-01-22T23:09:51.369Z,100495.25
2024-01-22T23:12:19.577Z,100501.16
2024-01-22T23:14:50.968Z,100497.91
2024-01-22T23:17:18.013Z,100491.00
2024-01-22T23:19:49.505Z,100490.97
2024-01-22T23:22:16.718Z,100492.75
2024-01-22T23:24:44.094Z,100485.94
2024-01-22T23:27:11.178Z,100489.28
2024-01-22T23:29:38.448Z,100470.66
2024-01-22T23:32:05.777Z,100472.44
2024-01-22T23:34:33.054Z,100463.94
2024-01-22T23:37:00.226Z,100460.47
2024-01-22T23:39:27.301Z,100464.63
2024-01-22T23:41:54.371Z,100458.72
2024-01-22T23:44:21.369Z,100451.84
2024-01-22T23:46:48.460Z,100444.19
2024-01-22T23:49:15.788Z,100441.78
2024-01-22T23:51:42.938Z,100451.22
2024-01-22T23:54:10.087Z,100437.66
2024-01-22T23:56:37.116Z,100448.75
2024-01-22T23:59:05.035Z,100440.31
